Time;durP1;ratioP1;P1;durP2;ratioP2;P2;SDS_P1;SDS_P2;PMS_P1;PMS_P2;Temp;Humidity;BMP_temperature;BMP_pressure;BME280_temperature;BME280_humidity;BME280_pressure;Samples;Min_cycle;Max_cycle;Signal;HPM_P1;HPM_P2
2021/08/23 00:00:14;;;;;;;;;;;16.50;99.90;;;;;;1959061;73;20374;-69
2021/08/23 00:02:40;;;;;;;;;;;16.50;99.90;;;;;;1958969;73;20206;-69
2021/08/23 00:05:07;;;;;;;;;;;16.50;99.90;;;;;;1959301;73;20162;-69
2021/08/23 00:07:34;;;;;;;;;;;16.40;99.90;;;;;;1959403;73;20150;-69
2021/08/23 00:10:01;;;;;;;;;;;16.40;99.90;;;;;;1959180;73;20204;-69
2021/08/23 00:12:29;;;;;;;;;;;16.40;99.90;;;;;;1958829;73;20417;-69
2021/08/23 00:14:56;;;;;;;;;;;16.40;99.90;;;;;;1959256;73;20163;-69
2021/08/23 00:17:23;;;;;;;;;;;16.50;99.90;;;;;;1959160;73;20170;-69
2021/08/23 00:19:50;;;;;;;;;;;16.50;99.90;;;;;;1959344;73;20119;-69
2021/08/23 00:22:21;;;;;;;;;;;16.50;99.90;;;;;;1958892;73;20533;-69
2021/08/23 00:24:48;;;;;;;;;;;16.40;99.90;;;;;;1959422;73;20162;-69
2021/08/23 00:27:15;;;;;;;;;;;16.40;99.90;;;;;;1959215;73;20178;-69
2021/08/23 00:29:43;;;;;;;;;;;16.40;99.90;;;;;;1959325;73;20108;-69
2021/08/23 00:32:10;;;;;;;;;;;16.40;99.90;;;;;;1958985;73;20471;-69
2021/08/23 00:34:37;;;;;;;;;;;16.40;99.90;;;;;;1959234;73;20407;-69
2021/08/23 00:37:04;;;;;;;;;;;16.40;99.90;;;;;;1959270;73;20182;-69
2021/08/23 00:39:31;;;;;;;;;;;16.50;99.90;;;;;;1959286;73;20178;-69
2021/08/23 00:41:59;;;;;;;;;;;16.40;99.90;;;;;;1958971;72;20201;-69
2021/08/23 00:44:25;;;;;;;;;;;16.50;99.90;;;;;;1959206;73;20256;-69
2021/08/23 00:46:52;;;;;;;;;;;16.40;99.90;;;;;;1959225;73;20163;-69
2021/08/23 00:49:19;;;;;;;;;;;16.50;99.90;;;;;;1959229;73;20119;-69
2021/08/23 00:51:46;;;;;;;;;;;16.30;99.90;;;;;;1959048;73;20170;-69
2021/08/23 00:54:13;;;;;;;;;;;16.40;99.90;;;;;;1959229;73;20151;-69
2021/08/23 00:56:40;;;;;;;;;;;16.40;99.90;;;;;;1959254;73;20487;-69
2021/08/23 00:59:08;;;;;;;;;;;16.40;99.90;;;;;;1959236;73;20209;-69
2021/08/23 01:01:46;;;;;;;;;;;16.40;99.90;;;;;;1958982;73;20154;-69
2021/08/23 01:04:15;;;;;;;;;;;16.30;99.90;;;;;;1958785;73;20197;-69
2021/08/23 01:06:42;;;;;;;;;;;16.40;99.90;;;;;;1957893;73;20142;-69
2021/08/23 01:09:11;;;;;;;;;;;16.40;99.90;;;;;;1959269;73;20139;-69
2021/08/23 01:11:42;;;;;;;;;;;16.30;99.90;;;;;;1958910;73;20108;-69
2021/08/23 01:14:09;;;;;;;;;;;16.30;99.90;;;;;;1959209;73;20487;-69
2021/08/23 01:16:36;;;;;;;;;;;16.30;99.90;;;;;;1959305;73;20208;-69
2021/08/23 01:19:03;;;;;;;;;;;16.30;99.90;;;;;;1959304;73;20451;-69
2021/08/23 01:21:30;;;;;;;;;;;16.30;99.90;;;;;;1958706;73;20158;-70
2021/08/23 01:23:58;;;;;;;;;;;16.30;99.90;;;;;;1958877;73;20219;-70
2021/08/23 01:26:26;;;;;;;;;;;16.30;99.90;;;;;;1958841;73;20167;-70
2021/08/23 01:29:00;;;;;;;;;;;16.30;99.90;;;;;;1958891;73;20155;-70
2021/08/23 01:31:28;;;;;;;;;;;16.30;99.90;;;;;;1958531;73;20170;-70
2021/08/23 01:33:55;;;;;;;;;;;16.30;99.90;;;;;;1958405;73;20174;-69
2021/08/23 01:36:22;;;;;;;;;;;16.30;99.90;;;;;;1958874;73;20119;-69
2021/08/23 01:38:49;;;;;;;;;;;16.30;99.90;;;;;;1958891;72;20433;-69
2021/08/23 01:41:16;;;;;;;;;;;16.20;99.90;;;;;;1958640;73;20148;-68
2021/08/23 01:43:43;;;;;;;;;;;16.20;99.90;;;;;;1958917;73;20124;-69
2021/08/23 01:46:10;;;;;;;;;;;16.20;99.90;;;;;;1958973;73;20475;-69
2021/08/23 01:48:36;;;;;;;;;;;16.20;99.90;;;;;;1958949;73;20159;-70
2021/08/23 01:51:03;;;;;;;;;;;16.20;99.90;;;;;;1958604;73;20561;-70
2021/08/23 01:53:31;;;;;;;;;;;16.20;99.90;;;;;;1958888;73;20170;-69
2021/08/23 01:55:58;;;;;;;;;;;16.20;99.90;;;;;;1958948;73;20159;-70
2021/08/23 01:58:24;;;;;;;;;;;16.20;99.90;;;;;;1958905;73;20144;-70
2021/08/23 02:00:51;;;;;;;;;;;16.20;99.90;;;;;;1958668;73;20346;-70
2021/08/23 02:03:18;;;;;;;;;;;16.20;99.90;;;;;;1958883;73;20170;-69
2021/08/23 02:05:45;;;;;;;;;;;16.10;99.90;;;;;;1959002;73;20192;-70
2021/08/23 02:08:12;;;;;;;;;;;16.20;99.90;;;;;;1958780;73;20196;-70
2021/08/23 02:10:38;;;;;;;;;;;16.20;99.90;;;;;;1958533;73;20467;-70
2021/08/23 02:13:05;;;;;;;;;;;16.20;99.90;;;;;;1958953;73;20131;-70
2021/08/23 02:15:32;;;;;;;;;;;16.30;99.90;;;;;;1959096;73;20182;-70
2021/08/23 02:17:59;;;;;;;;;;;16.20;99.90;;;;;;1958894;73;20200;-69
2021/08/23 02:20:26;;;;;;;;;;;16.20;99.90;;;;;;1958777;73;20193;-70
2021/08/23 02:22:52;;;;;;;;;;;16.10;99.90;;;;;;1958985;73;20162;-69
2021/08/23 02:25:23;;;;;;;;;;;16.20;99.90;;;;;;1958902;73;20209;-69
2021/08/23 02:27:53;;;;;;;;;;;16.20;99.90;;;;;;1958931;73;20150;-69
2021/08/23 02:30:20;;;;;;;;;;;16.10;99.90;;;;;;1958571;73;20151;-70
2021/08/23 02:32:47;;;;;;;;;;;16.10;99.90;;;;;;1976149;70;20168;-71
2021/08/23 02:35:14;;;;;;;;;;;16.10;99.90;;;;;;1998935;72;20192;-71
2021/08/23 02:37:41;;;;;;;;;;;16.20;99.90;;;;;;1999119;72;20176;-71
2021/08/23 02:40:08;;;;;;;;;;;16.20;99.90;;;;;;1998944;72;20198;-72
2021/08/23 02:42:35;;;;;;;;;;;16.10;99.90;;;;;;1981721;72;20174;-72
2021/08/23 02:45:02;;;;;;;;;;;16.10;99.90;;;;;;1963303;73;20119;-72
2021/08/23 02:47:29;;;;;;;;;;;16.10;99.90;;;;;;1963628;73;20155;-71
2021/08/23 02:49:57;;;;;;;;;;;16.10;99.90;;;;;;1963161;73;20452;-71
2021/08/23 02:52:24;;;;;;;;;;;16.10;99.90;;;;;;1963243;72;20111;-72
2021/08/23 02:54:51;;;;;;;;;;;16.10;99.90;;;;;;1963380;73;20155;-71
2021/08/23 02:57:18;;;;;;;;;;;16.10;99.90;;;;;;1963243;73;20212;-72
2021/08/23 02:59:45;;;;;;;;;;;16.20;99.90;;;;;;1963407;73;20119;-72
2021/08/23 03:02:11;;;;;;;;;;;16.10;99.90;;;;;;1963218;72;20174;-71
2021/08/23 03:04:38;;;;;;;;;;;16.10;99.90;;;;;;1963433;73;20170;-72
2021/08/23 03:07:05;;;;;;;;;;;16.10;99.90;;;;;;1963335;73;20119;-72
2021/08/23 03:09:32;;;;;;;;;;;16.10;99.90;;;;;;1963251;73;20189;-72
2021/08/23 03:11:59;;;;;;;;;;;16.10;99.90;;;;;;1963198;72;20204;-71
2021/08/23 03:14:26;;;;;;;;;;;16.10;99.90;;;;;;1963317;73;20107;-71
2021/08/23 03:16:52;;;;;;;;;;;16.10;99.90;;;;;;1963197;73;20182;-72
2021/08/23 03:19:19;;;;;;;;;;;16.10;99.90;;;;;;1963490;73;20389;-71
2021/08/23 03:21:47;;;;;;;;;;;16.10;99.90;;;;;;1962879;72;20174;-71
2021/08/23 03:24:13;;;;;;;;;;;16.10;99.90;;;;;;1963543;73;20146;-71
2021/08/23 03:26:41;;;;;;;;;;;16.10;99.90;;;;;;1963229;73;20503;-72
2021/08/23 03:29:09;;;;;;;;;;;16.20;99.90;;;;;;1963236;73;20405;-72
2021/08/23 03:31:36;;;;;;;;;;;16.20;99.90;;;;;;1963042;72;20115;-71
2021/08/23 03:34:06;;;;;;;;;;;16.10;99.90;;;;;;1963439;73;20486;-71
2021/08/23 03:36:32;;;;;;;;;;;16.10;99.90;;;;;;1962687;73;20170;-71
2021/08/23 03:38:59;;;;;;;;;;;16.10;99.90;;;;;;1963189;73;20151;-72
2021/08/23 03:41:26;;;;;;;;;;;16.00;99.90;;;;;;1963399;73;20127;-71
2021/08/23 03:43:53;;;;;;;;;;;16.10;99.90;;;;;;1963351;73;20309;-71
2021/08/23 03:46:19;;;;;;;;;;;16.00;99.90;;;;;;1963182;73;20166;-71
2021/08/23 03:48:46;;;;;;;;;;;16.00;99.90;;;;;;1963338;73;20146;-72
2021/08/23 03:51:13;;;;;;;;;;;16.00;99.90;;;;;;1962986;73;20174;-72
2021/08/23 03:53:40;;;;;;;;;;;16.00;99.90;;;;;;1963286;72;20162;-71
2021/08/23 03:56:07;;;;;;;;;;;16.10;99.90;;;;;;1963333;73;20213;-70
2021/08/23 03:58:33;;;;;;;;;;;16.00;99.90;;;;;;1963188;73;20174;-71
2021/08/23 04:01:00;;;;;;;;;;;16.00;99.90;;;;;;1963109;72;20111;-72
2021/08/23 04:03:29;;;;;;;;;;;15.90;99.90;;;;;;1963354;72;20464;-70
2021/08/23 04:05:55;;;;;;;;;;;15.90;99.90;;;;;;1963270;73;20360;-72
2021/08/23 04:08:22;;;;;;;;;;;15.90;99.90;;;;;;1963298;72;20426;-72
2021/08/23 04:10:49;;;;;;;;;;;15.90;99.90;;;;;;1962915;73;20119;-72
2021/08/23 04:13:16;;;;;;;;;;;15.90;99.90;;;;;;1963297;72;20206;-72
2021/08/23 04:15:47;;;;;;;;;;;15.80;99.90;;;;;;1963426;73;20116;-72
2021/08/23 04:18:14;;;;;;;;;;;15.80;99.90;;;;;;1963360;73;20515;-71
2021/08/23 04:20:41;;;;;;;;;;;15.80;99.90;;;;;;1963006;73;20186;-72
2021/08/23 04:23:08;;;;;;;;;;;15.80;99.90;;;;;;1963280;72;20159;-71
2021/08/23 04:25:35;;;;;;;;;;;15.80;99.90;;;;;;1963236;73;20186;-72
2021/08/23 04:28:01;;;;;;;;;;;15.80;99.90;;;;;;1963353;73;20120;-72
2021/08/23 04:30:28;;;;;;;;;;;15.70;99.90;;;;;;1963085;73;20178;-72
2021/08/23 04:32:55;;;;;;;;;;;15.70;99.90;;;;;;1963283;72;20123;-72
2021/08/23 04:35:22;;;;;;;;;;;15.70;99.90;;;;;;1963411;73;20186;-72
2021/08/23 04:37:49;;;;;;;;;;;15.70;99.90;;;;;;1963255;73;20170;-71
2021/08/23 04:40:15;;;;;;;;;;;15.70;99.90;;;;;;1963190;73;20119;-72
2021/08/23 04:42:42;;;;;;;;;;;15.60;99.90;;;;;;1963429;72;20170;-72
2021/08/23 04:45:09;;;;;;;;;;;15.70;99.90;;;;;;1963292;73;20432;-72
2021/08/23 04:47:36;;;;;;;;;;;15.70;99.90;;;;;;1963227;73;20374;-72
2021/08/23 04:50:03;;;;;;;;;;;15.70;99.90;;;;;;1963385;73;20185;-71
2021/08/23 04:52:30;;;;;;;;;;;15.60;99.90;;;;;;1962985;72;20111;-71
2021/08/23 04:54:58;;;;;;;;;;;15.60;99.90;;;;;;1963152;73;20170;-71
2021/08/23 04:57:25;;;;;;;;;;;15.60;99.90;;;;;;1963118;73;20167;-71
2021/08/23 04:59:52;;;;;;;;;;;15.60;99.90;;;;;;1963231;73;20140;-71
2021/08/23 05:02:18;;;;;;;;;;;15.60;99.90;;;;;;1962953;72;20167;-72
2021/08/23 05:04:45;;;;;;;;;;;15.70;99.90;;;;;;1963407;73;20483;-72
2021/08/23 05:07:12;;;;;;;;;;;15.70;99.90;;;;;;1963309;73;20108;-72
2021/08/23 05:09:39;;;;;;;;;;;15.60;99.90;;;;;;1963325;73;20819;-71
2021/08/23 05:12:06;;;;;;;;;;;15.60;99.90;;;;;;1962993;72;20196;-71
2021/08/23 05:14:32;;;;;;;;;;;15.60;99.90;;;;;;1963381;73;20115;-70
2021/08/23 05:16:59;;;;;;;;;;;15.50;99.90;;;;;;1963161;73;20166;-71
2021/08/23 05:19:26;;;;;;;;;;;15.60;99.90;;;;;;1963334;73;20143;-71
2021/08/23 05:21:53;;;;;;;;;;;15.70;99.90;;;;;;1962931;72;20186;-71
2021/08/23 05:24:20;;;;;;;;;;;15.70;99.90;;;;;;1963338;73;20208;-71
2021/08/23 05:26:46;;;;;;;;;;;15.60;99.90;;;;;;1963234;73;20123;-71
2021/08/23 05:29:13;;;;;;;;;;;15.70;99.90;;;;;;1963374;73;20123;-70
2021/08/23 05:31:40;;;;;;;;;;;15.70;99.90;;;;;;1962921;72;20193;-72
2021/08/23 05:34:07;;;;;;;;;;;15.70;99.90;;;;;;1963177;73;20127;-71
2021/08/23 05:36:34;;;;;;;;;;;15.70;99.90;;;;;;1963154;73;20154;-71
2021/08/23 05:39:00;;;;;;;;;;;15.80;99.90;;;;;;1963238;73;20166;-72
2021/08/23 05:41:27;;;;;;;;;;;15.70;99.90;;;;;;1963021;72;20121;-71
2021/08/23 05:43:54;;;;;;;;;;;15.80;99.90;;;;;;1963333;73;20174;-71
2021/08/23 05:46:22;;;;;;;;;;;15.80;99.90;;;;;;1963232;73;20143;-70
2021/08/23 05:48:49;;;;;;;;;;;15.80;99.90;;;;;;1963215;73;20196;-71
2021/08/23 05:51:16;;;;;;;;;;;15.80;99.90;;;;;;1963026;73;20119;-71
2021/08/23 05:53:44;;;;;;;;;;;15.80;99.90;;;;;;1963232;72;20389;-71
2021/08/23 05:56:11;;;;;;;;;;;15.80;99.90;;;;;;1963250;73;20475;-70
2021/08/23 05:58:38;;;;;;;;;;;15.90;99.90;;;;;;1963247;73;20392;-71
2021/08/23 06:01:07;;;;;;;;;;;15.90;99.90;;;;;;1962956;73;20151;-72
2021/08/23 06:03:34;;;;;;;;;;;15.90;99.90;;;;;;1963166;72;20308;-70
2021/08/23 06:06:07;;;;;;;;;;;15.90;99.90;;;;;;1963128;73;20162;-70
2021/08/23 06:08:35;;;;;;;;;;;15.90;99.90;;;;;;1963213;73;20107;-71
2021/08/23 06:11:03;;;;;;;;;;;15.90;99.90;;;;;;1963004;73;20150;-70
2021/08/23 06:13:30;;;;;;;;;;;16.00;99.90;;;;;;1963353;72;20197;-71
2021/08/23 06:15:58;;;;;;;;;;;15.90;99.90;;;;;;1963399;73;20119;-70
2021/08/23 06:18:25;;;;;;;;;;;15.90;99.90;;;;;;1963398;73;20146;-71
2021/08/23 06:20:53;;;;;;;;;;;15.90;99.90;;;;;;1963056;73;20174;-70
2021/08/23 06:23:20;;;;;;;;;;;16.00;99.90;;;;;;1963397;72;20163;-72
2021/08/23 06:25:47;;;;;;;;;;;16.00;99.90;;;;;;1963360;73;20123;-71
2021/08/23 06:28:14;;;;;;;;;;;16.00;99.90;;;;;;1963399;73;20159;-71
2021/08/23 06:30:40;;;;;;;;;;;16.10;99.90;;;;;;1963181;71;20155;-72
2021/08/23 06:33:07;;;;;;;;;;;16.10;99.90;;;;;;1963298;72;20135;-70
2021/08/23 06:35:34;;;;;;;;;;;16.10;99.90;;;;;;1963330;71;20424;-71
2021/08/23 06:38:01;;;;;;;;;;;16.10;99.90;;;;;;1963510;73;20154;-71
2021/08/23 06:40:28;;;;;;;;;;;16.10;99.90;;;;;;1963086;73;20163;-71
2021/08/23 06:42:55;;;;;;;;;;;16.10;99.90;;;;;;1963391;72;20111;-71
2021/08/23 06:45:21;;;;;;;;;;;16.20;99.90;;;;;;1963334;73;20100;-70
2021/08/23 06:47:48;;;;;;;;;;;16.20;99.90;;;;;;1963536;73;20210;-71
2021/08/23 06:50:15;;;;;;;;;;;16.20;99.90;;;;;;1963243;73;20124;-70
2021/08/23 06:52:44;;;;;;;;;;;16.20;99.90;;;;;;1963086;72;20163;-71
2021/08/23 06:55:11;;;;;;;;;;;16.30;99.90;;;;;;1963084;73;20435;-70
2021/08/23 06:57:37;;;;;;;;;;;16.30;99.90;;;;;;1963194;73;20123;-71
2021/08/23 07:00:05;;;;;;;;;;;16.30;99.90;;;;;;1963212;73;20155;-71
2021/08/23 07:02:31;;;;;;;;;;;16.30;99.90;;;;;;1962983;72;20150;-71
2021/08/23 07:04:58;;;;;;;;;;;16.30;99.90;;;;;;1963399;73;20200;-70
2021/08/23 07:07:25;;;;;;;;;;;16.40;99.90;;;;;;1963439;73;20229;-71
2021/08/23 07:09:52;;;;;;;;;;;16.40;99.90;;;;;;1963217;73;20227;-71
2021/08/23 07:12:19;;;;;;;;;;;16.40;99.90;;;;;;1963098;72;20216;-71
2021/08/23 07:14:45;;;;;;;;;;;16.50;99.90;;;;;;1963326;73;20123;-71
2021/08/23 07:17:12;;;;;;;;;;;16.50;99.90;;;;;;1963593;73;20126;-70
2021/08/23 07:19:39;;;;;;;;;;;16.50;99.90;;;;;;1963423;73;20159;-72
2021/08/23 07:22:06;;;;;;;;;;;16.50;99.90;;;;;;1963033;72;20162;-71
2021/08/23 07:24:33;;;;;;;;;;;16.50;99.90;;;;;;1963228;73;20217;-71
2021/08/23 07:27:04;;;;;;;;;;;16.50;99.90;;;;;;1963402;73;20167;-71
2021/08/23 07:29:28;;;;;;;;;;;16.60;99.90;;;;;;1962685;73;20224;-71
2021/08/23 07:31:55;;;;;;;;;;;16.60;99.90;;;;;;1963086;71;20730;-70
2021/08/23 07:34:21;;;;;;;;;;;16.60;99.90;;;;;;1963343;73;20174;-71
2021/08/23 07:36:50;;;;;;;;;;;16.70;99.90;;;;;;1963238;73;20397;-71
2021/08/23 07:39:16;;;;;;;;;;;16.70;99.90;;;;;;1963217;73;20103;-71
2021/08/23 07:41:43;;;;;;;;;;;16.70;99.90;;;;;;1963110;72;20162;-70
2021/08/23 07:44:10;;;;;;;;;;;16.80;99.90;;;;;;1963413;73;20163;-71
2021/08/23 07:46:38;;;;;;;;;;;16.80;99.90;;;;;;1966200;73;20119;-71
2021/08/23 07:49:05;;;;;;;;;;;16.80;99.90;;;;;;1966778;73;20163;-70
2021/08/23 07:51:32;;;;;;;;;;;16.80;99.90;;;;;;1966534;72;20115;-70
2021/08/23 07:53:59;;;;;;;;;;;16.70;99.90;;;;;;1966923;73;20459;-71
2021/08/23 07:56:26;;;;;;;;;;;16.80;99.90;;;;;;1966917;73;20111;-70
2021/08/23 07:58:53;;;;;;;;;;;16.80;99.90;;;;;;1966856;72;20119;-70
2021/08/23 08:01:22;;;;;;;;;;;16.80;99.90;;;;;;1966689;73;20163;-70
2021/08/23 08:03:48;;;;;;;;;;;16.90;99.90;;;;;;1966276;72;20209;-71
2021/08/23 08:06:16;;;;;;;;;;;17.00;99.90;;;;;;1965873;73;20116;-70
2021/08/23 08:08:43;;;;;;;;;;;17.10;99.90;;;;;;1965787;73;20163;-70
2021/08/23 08:11:10;;;;;;;;;;;17.10;99.90;;;;;;1966019;73;20115;-70
2021/08/23 08:13:37;;;;;;;;;;;17.10;99.90;;;;;;1966036;72;20261;-71
2021/08/23 08:16:03;;;;;;;;;;;17.10;99.90;;;;;;1966175;73;20140;-71
2021/08/23 08:18:30;;;;;;;;;;;17.10;99.90;;;;;;1965308;73;20198;-70
2021/08/23 08:20:57;;;;;;;;;;;17.30;99.90;;;;;;1963103;73;20170;-71
2021/08/23 08:23:24;;;;;;;;;;;17.30;99.90;;;;;;1963468;72;20153;-70
2021/08/23 08:25:51;;;;;;;;;;;17.30;99.90;;;;;;1963427;73;20170;-71
2021/08/23 08:28:18;;;;;;;;;;;17.30;99.90;;;;;;1963348;73;20119;-71
2021/08/23 08:30:44;;;;;;;;;;;17.40;99.90;;;;;;1963283;73;20158;-70
2021/08/23 08:33:11;;;;;;;;;;;17.30;99.90;;;;;;1921883;72;20168;-69
2021/08/23 08:35:38;;;;;;;;;;;17.30;99.90;;;;;;1903611;75;20160;-69
2021/08/23 08:38:05;;;;;;;;;;;17.40;99.90;;;;;;1926221;74;20168;-69
2021/08/23 08:40:32;;;;;;;;;;;17.40;99.90;;;;;;1936801;74;20192;-69
2021/08/23 08:42:59;;;;;;;;;;;17.40;99.90;;;;;;1881361;75;20128;-69
2021/08/23 08:45:30;;;;;;;;;;;17.40;99.90;;;;;;1901167;75;20448;-69
2021/08/23 08:47:59;;;;;;;;;;;17.40;99.90;;;;;;1901127;75;20260;-68
2021/08/23 08:50:27;;;;;;;;;;;17.40;99.90;;;;;;1900995;75;20163;-69
2021/08/23 08:52:54;;;;;;;;;;;17.40;99.90;;;;;;1901198;75;20200;-69
2021/08/23 08:55:21;;;;;;;;;;;17.50;99.90;;;;;;1901338;75;20119;-69
2021/08/23 08:57:47;;;;;;;;;;;17.60;99.90;;;;;;1901255;75;20474;-69
2021/08/23 09:00:14;;;;;;;;;;;17.80;99.90;;;;;;1901222;75;20159;-69
2021/08/23 09:02:43;;;;;;;;;;;17.80;99.90;;;;;;1901102;75;20128;-69
2021/08/23 09:05:16;;;;;;;;;;;17.90;99.90;;;;;;1898588;75;20513;-69
2021/08/23 09:07:44;;;;;;;;;;;18.00;99.90;;;;;;1901280;75;20127;-69
2021/08/23 09:10:22;;;;;;;;;;;18.10;99.90;;;;;;1900730;75;20158;-71
2021/08/23 09:12:59;;;;;;;;;;;18.10;99.90;;;;;;1900553;75;20159;-69
2021/08/23 09:15:26;;;;;;;;;;;18.20;99.90;;;;;;1901142;75;20408;-71
2021/08/23 09:18:02;;;;;;;;;;;18.30;99.90;;;;;;1901227;75;20167;-70
2021/08/23 09:20:29;;;;;;;;;;;18.30;99.90;;;;;;1900934;75;20159;-69
2021/08/23 09:22:57;;;;;;;;;;;18.40;99.90;;;;;;1901130;75;20120;-69
2021/08/23 09:25:25;;;;;;;;;;;18.50;99.90;;;;;;1899029;75;20190;-69
2021/08/23 09:27:53;;;;;;;;;;;18.50;99.90;;;;;;1901077;75;20108;-69
2021/08/23 09:30:21;;;;;;;;;;;18.60;99.90;;;;;;1898669;75;20124;-69
2021/08/23 09:32:49;;;;;;;;;;;18.70;99.90;;;;;;1900994;75;20115;-68
2021/08/23 09:35:34;;;;;;;;;;;18.70;99.90;;;;;;1901236;75;20217;-69
2021/08/23 09:38:02;;;;;;;;;;;18.80;99.90;;;;;;1900832;75;20452;-70
2021/08/23 09:40:31;;;;;;;;;;;18.90;99.90;;;;;;1900814;75;20877;-70
2021/08/23 09:42:58;;;;;;;;;;;19.00;99.90;;;;;;1901148;75;20198;-70
2021/08/23 09:45:26;;;;;;;;;;;19.00;99.90;;;;;;1901067;75;20171;-70
2021/08/23 09:48:00;;;;;;;;;;;19.00;99.90;;;;;;1901288;75;20557;-70
2021/08/23 09:50:28;;;;;;;;;;;19.00;99.90;;;;;;1900368;75;20193;-70
2021/08/23 09:52:57;;;;;;;;;;;19.10;99.90;;;;;;1898921;75;20174;-70
2021/08/23 09:55:25;;;;;;;;;;;19.20;99.90;;;;;;1899315;75;20198;-70
2021/08/23 09:57:52;;;;;;;;;;;19.20;99.90;;;;;;1900785;75;20167;-69
2021/08/23 10:00:19;;;;;;;;;;;19.20;99.90;;;;;;1901120;75;20150;-70
2021/08/23 10:02:47;;;;;;;;;;;19.20;99.90;;;;;;1901299;75;20182;-70
2021/08/23 10:05:18;;;;;;;;;;;19.20;99.90;;;;;;1901256;75;20167;-69
2021/08/23 10:07:46;;;;;;;;;;;19.20;99.90;;;;;;1901225;75;20456;-69
2021/08/23 10:10:13;;;;;;;;;;;19.30;99.90;;;;;;1901007;75;20439;-69
2021/08/23 10:12:40;;;;;;;;;;;19.40;99.90;;;;;;1900889;75;20163;-69
2021/08/23 10:15:07;;;;;;;;;;;19.40;99.90;;;;;;1901254;75;20175;-69
2021/08/23 10:17:37;;;;;;;;;;;19.60;99.90;;;;;;1901137;75;20159;-69
2021/08/23 10:20:05;;;;;;;;;;;19.60;99.90;;;;;;1901209;75;20174;-69
2021/08/23 10:22:33;;;;;;;;;;;19.60;99.90;;;;;;1900963;75;20167;-69
2021/08/23 10:25:00;;;;;;;;;;;19.50;99.90;;;;;;1901339;75;20123;-69
2021/08/23 10:27:29;;;;;;;;;;;19.60;99.90;;;;;;1901144;75;20162;-69
2021/08/23 10:29:55;;;;;;;;;;;19.80;99.90;;;;;;1900683;75;20114;-69
2021/08/23 10:32:24;;;;;;;;;;;19.90;99.90;;;;;;1901142;75;20159;-69
2021/08/23 10:34:50;;;;;;;;;;;19.90;99.90;;;;;;1898856;75;20167;-69
2021/08/23 10:37:22;;;;;;;;;;;20.00;99.90;;;;;;1901125;75;20170;-69
2021/08/23 10:40:00;;;;;;;;;;;20.10;99.90;;;;;;1901072;75;20539;-69
2021/08/23 10:42:28;;;;;;;;;;;20.10;99.90;;;;;;1900988;75;20151;-69
2021/08/23 10:44:56;;;;;;;;;;;20.10;99.90;;;;;;1899207;75;20175;-69
2021/08/23 10:47:25;;;;;;;;;;;20.20;99.90;;;;;;1898962;75;20193;-69
2021/08/23 10:49:51;;;;;;;;;;;20.10;99.90;;;;;;1899923;75;20201;-69
2021/08/23 10:52:20;;;;;;;;;;;20.10;99.90;;;;;;1900693;75;20167;-69
2021/08/23 10:54:49;;;;;;;;;;;20.10;99.90;;;;;;1898373;75;20124;-69
2021/08/23 10:57:17;;;;;;;;;;;20.10;99.90;;;;;;1900801;74;20174;-69
2021/08/23 10:59:51;;;;;;;;;;;20.00;99.90;;;;;;1900201;75;20448;-69
2021/08/23 11:02:22;;;;;;;;;;;20.00;99.90;;;;;;1900765;75;20185;-69
2021/08/23 11:04:57;;;;;;;;;;;20.00;99.90;;;;;;1900974;74;20159;-69
2021/08/23 11:07:28;;;;;;;;;;;20.00;99.90;;;;;;1901055;75;20166;-68
2021/08/23 11:10:12;;;;;;;;;;;20.10;99.90;;;;;;1901030;75;20352;-69
2021/08/23 11:12:41;;;;;;;;;;;20.10;99.90;;;;;;1900819;75;20822;-70
2021/08/23 11:15:20;;;;;;;;;;;20.30;99.90;;;;;;1900090;75;20186;-67
2021/08/23 11:17:48;;;;;;;;;;;20.30;99.90;;;;;;1900884;75;20412;-68
2021/08/23 11:20:22;;;;;;;;;;;20.30;99.90;;;;;;1899995;75;20197;-70
2021/08/23 11:22:56;;;;;;;;;;;20.40;99.90;;;;;;1900890;75;20229;-68
2021/08/23 11:25:34;;;;;;;;;;;20.30;99.90;;;;;;1899926;75;20228;-70
2021/08/23 11:28:01;;;;;;;;;;;20.30;99.90;;;;;;1900842;75;20175;-69
2021/08/23 11:30:29;;;;;;;;;;;20.30;99.90;;;;;;1900832;75;20148;-69
2021/08/23 11:32:55;;;;;;;;;;;20.40;99.90;;;;;;1901115;75;20116;-69
2021/08/23 11:35:22;;;;;;;;;;;20.50;99.90;;;;;;1901261;75;20178;-69
2021/08/23 11:38:00;;;;;;;;;;;20.50;99.90;;;;;;1901247;75;20444;-69
2021/08/23 11:40:27;;;;;;;;;;;20.50;99.90;;;;;;1901072;75;20168;-69
2021/08/23 11:42:55;;;;;;;;;;;20.60;99.90;;;;;;1901217;75;20400;-69
2021/08/23 11:45:24;;;;;;;;;;;20.70;99.90;;;;;;1899796;75;20124;-69
2021/08/23 11:47:51;;;;;;;;;;;20.70;99.90;;;;;;1900170;75;20821;-69
2021/08/23 11:50:19;;;;;;;;;;;20.70;99.90;;;;;;1901025;75;20179;-69
2021/08/23 11:52:47;;;;;;;;;;;20.70;99.90;;;;;;1900993;75;20164;-69
2021/08/23 11:55:15;;;;;;;;;;;20.70;99.90;;;;;;1901342;75;20205;-69
2021/08/23 11:57:42;;;;;;;;;;;20.90;99.90;;;;;;1899053;75;20425;-69
2021/08/23 12:00:09;;;;;;;;;;;20.90;99.90;;;;;;1901211;75;20178;-69
2021/08/23 12:02:39;;;;;;;;;;;20.90;99.90;;;;;;1901047;75;20159;-69
2021/08/23 12:05:07;;;;;;;;;;;21.00;99.90;;;;;;1901246;75;20436;-69
2021/08/23 12:07:42;;;;;;;;;;;21.00;99.90;;;;;;1900309;75;20151;-69
2021/08/23 12:10:09;;;;;;;;;;;21.20;99.90;;;;;;1900827;75;20112;-69
2021/08/23 12:12:36;;;;;;;;;;;21.20;99.90;;;;;;1900826;75;20174;-69
2021/08/23 12:15:02;;;;;;;;;;;21.20;99.90;;;;;;1901350;75;20127;-69
2021/08/23 12:17:33;;;;;;;;;;;21.30;99.90;;;;;;1901104;75;20163;-69
2021/08/23 12:20:07;;;;;;;;;;;21.20;99.90;;;;;;1901325;75;20186;-69
2021/08/23 12:22:34;;;;;;;;;;;21.30;99.90;;;;;;1901051;75;20178;-69
2021/08/23 12:25:03;;;;;;;;;;;21.30;99.90;;;;;;1901083;75;20182;-69
2021/08/23 12:27:30;;;;;;;;;;;21.40;99.90;;;;;;1901288;75;20478;-69
2021/08/23 12:30:03;;;;;;;;;;;21.50;99.90;;;;;;1960971;72;20197;-69
2021/08/23 12:32:36;;;;;;;;;;;21.50;99.90;;;;;;1910021;75;20150;-69
2021/08/23 12:35:03;;;;;;;;;;;21.70;99.90;;;;;;1887315;76;20207;-69
2021/08/23 12:37:31;;;;;;;;;;;21.70;99.90;;;;;;1887315;75;20204;-69
2021/08/23 12:39:58;;;;;;;;;;;21.60;99.90;;;;;;1887338;75;20111;-69
2021/08/23 12:42:25;;;;;;;;;;;21.70;99.90;;;;;;1887075;75;20157;-69
2021/08/23 12:44:51;;;;;;;;;;;21.70;99.90;;;;;;1887452;76;20123;-69
2021/08/23 12:47:18;;;;;;;;;;;21.70;99.90;;;;;;1887222;76;20161;-69
2021/08/23 12:49:48;;;;;;;;;;;21.70;99.90;;;;;;1887354;76;20263;-69
2021/08/23 12:52:14;;;;;;;;;;;21.70;99.90;;;;;;1886838;75;20380;-69
2021/08/23 12:54:41;;;;;;;;;;;21.80;99.90;;;;;;1887371;76;20173;-69
2021/08/23 12:57:08;;;;;;;;;;;21.90;99.90;;;;;;1887219;75;20134;-69
2021/08/23 12:59:34;;;;;;;;;;;21.90;99.90;;;;;;1887381;76;20197;-69
2021/08/23 13:02:01;;;;;;;;;;;22.00;99.90;;;;;;1886880;75;20169;-69
2021/08/23 13:04:28;;;;;;;;;;;21.90;99.90;;;;;;1887234;76;20114;-69
2021/08/23 13:06:55;;;;;;;;;;;21.90;99.90;;;;;;1887153;76;20721;-69
2021/08/23 13:09:22;;;;;;;;;;;21.90;99.90;;;;;;1887126;76;20177;-69
2021/08/23 13:11:48;;;;;;;;;;;22.00;99.90;;;;;;1887070;75;20467;-69
2021/08/23 13:14:15;;;;;;;;;;;22.00;99.90;;;;;;1887208;76;20158;-69
2021/08/23 13:16:42;;;;;;;;;;;22.00;99.90;;;;;;1887292;76;20420;-69
2021/08/23 13:19:09;;;;;;;;;;;22.20;99.90;;;;;;1887194;76;20122;-69
2021/08/23 13:21:36;;;;;;;;;;;22.00;99.90;;;;;;1886859;76;20470;-69
2021/08/23 13:24:02;;;;;;;;;;;21.90;99.90;;;;;;1887027;75;20130;-69
2021/08/23 13:26:29;;;;;;;;;;;21.80;99.90;;;;;;1886884;75;20152;-69
2021/08/23 13:28:56;;;;;;;;;;;22.00;99.90;;;;;;1882619;76;20169;-69
2021/08/23 13:31:26;;;;;;;;;;;22.10;99.90;;;;;;1874560;76;20204;-70
2021/08/23 13:33:51;;;;;;;;;;;22.20;99.90;;;;;;1874499;75;20174;-69
2021/08/23 13:36:18;;;;;;;;;;;21.90;99.90;;;;;;1874807;76;20212;-69
2021/08/23 13:38:45;;;;;;;;;;;21.70;99.90;;;;;;1874598;76;20111;-70
2021/08/23 13:41:13;;;;;;;;;;;21.90;99.90;;;;;;1873927;75;20456;-69
2021/08/23 13:43:42;;;;;;;;;;;22.00;99.90;;;;;;1874030;75;20451;-69
2021/08/23 13:46:08;;;;;;;;;;;22.10;99.90;;;;;;1874143;76;20194;-69
2021/08/23 13:48:35;;;;;;;;;;;22.30;99.90;;;;;;1874038;76;20223;-69
2021/08/23 13:51:02;;;;;;;;;;;22.40;99.90;;;;;;1874042;76;20153;-69
2021/08/23 13:53:29;;;;;;;;;;;22.60;99.90;;;;;;1873993;75;20182;-69
2021/08/23 13:55:56;;;;;;;;;;;22.60;99.90;;;;;;1874026;77;20392;-69
2021/08/23 13:58:22;;;;;;;;;;;22.60;99.90;;;;;;1874083;77;20170;-69
2021/08/23 14:00:49;;;;;;;;;;;22.70;99.90;;;;;;1873843;76;20182;-70
2021/08/23 14:03:16;;;;;;;;;;;22.40;99.90;;;;;;1874157;75;20813;-69
2021/08/23 14:05:43;;;;;;;;;;;22.10;99.90;;;;;;1873974;77;20170;-69
2021/08/23 14:08:10;;;;;;;;;;;22.20;99.90;;;;;;1874080;77;20130;-69
2021/08/23 14:10:37;;;;;;;;;;;22.40;99.90;;;;;;1873420;76;20185;-69
2021/08/23 14:13:04;;;;;;;;;;;22.60;99.90;;;;;;1873611;75;20201;-69
2021/08/23 14:15:30;;;;;;;;;;;22.90;99.90;;;;;;1874005;77;20158;-70
2021/08/23 14:17:57;;;;;;;;;;;22.80;99.90;;;;;;1873577;77;20181;-69